Time;durP1;ratioP1;P1;durP2;ratioP2;P2;SDS_P1;SDS_P2;PMS_P1;PMS_P2;Temp;Humidity;BMP_temperature;BMP_pressure;BME280_temperature;BME280_humidity;BME280_pressure;Samples;Min_cycle;Max_cycle;Signal;HPM_P1;HPM_P2
2021/01/01 00:00:35;;;;;;;13.13;6.35;;;;;;;;;;5131774;27;20023;-71
2021/01/01 00:03:01;;;;;;;9.32;6.30;;;;;;;;;;5115762;28;20475;-71
2021/01/01 00:05:28;;;;;;;11.05;6.30;;;;;;;;;;5115685;28;20027;-68
2021/01/01 00:07:54;;;;;;;12.13;6.18;;;;;;;;;;5127779;27;20028;-73
2021/01/01 00:10:20;;;;;;;12.43;6.50;;;;;;;;;;5111034;28;20023;-70
2021/01/01 00:12:46;;;;;;;11.35;6.53;;;;;;;;;;5095109;28;20016;-71
2021/01/01 00:15:13;;;;;;;12.20;6.63;;;;;;;;;;5095403;28;20024;-73
2021/01/01 00:17:39;;;;;;;10.35;6.55;;;;;;;;;;5094988;28;20021;-70
2021/01/01 00:20:07;;;;;;;12.93;7.25;;;;;;;;;;5094869;28;20509;-71
2021/01/01 00:22:33;;;;;;;11.93;7.28;;;;;;;;;;5094698;28;20471;-72
2021/01/01 00:25:00;;;;;;;11.25;7.32;;;;;;;;;;5095352;28;20030;-72
2021/01/01 00:27:30;;;;;;;12.63;7.60;;;;;;;;;;5094826;28;20020;-70
2021/01/01 00:29:56;;;;;;;12.55;7.68;;;;;;;;;;5094822;28;20040;-70
2021/01/01 00:32:23;;;;;;;13.88;8.23;;;;;;;;;;5094619;28;20052;-71
2021/01/01 00:34:49;;;;;;;11.95;7.20;;;;;;;;;;5094350;28;20048;-69
2021/01/01 00:37:15;;;;;;;10.68;6.93;;;;;;;;;;5109139;27;20364;-70
2021/01/01 00:39:41;;;;;;;10.90;7.38;;;;;;;;;;5094661;28;20027;-70
2021/01/01 00:42:07;;;;;;;12.07;7.45;;;;;;;;;;5096804;28;20030;-71
2021/01/01 00:44:33;;;;;;;12.43;7.28;;;;;;;;;;5114971;28;20035;-71
2021/01/01 00:47:00;;;;;;;13.25;7.15;;;;;;;;;;5115014;28;20042;-69
2021/01/01 00:49:26;;;;;;;16.30;7.45;;;;;;;;;;5114746;28;20027;-68
2021/01/01 00:51:52;;;;;;;11.48;7.55;;;;;;;;;;5096386;28;20382;-69
2021/01/01 00:54:18;;;;;;;11.77;7.50;;;;;;;;;;5095229;28;20102;-68
2021/01/01 00:56:44;;;;;;;10.40;6.70;;;;;;;;;;5114734;28;20077;-67
2021/01/01 00:59:10;;;;;;;21.60;7.30;;;;;;;;;;5103693;28;20100;-72
2021/01/01 01:01:36;;;;;;;12.20;7.22;;;;;;;;;;5092050;28;20028;-71
2021/01/01 01:04:03;;;;;;;11.23;6.90;;;;;;;;;;5109190;28;20506;-73
2021/01/01 01:06:30;;;;;;;10.95;6.88;;;;;;;;;;5093513;28;20376;-72
2021/01/01 01:08:56;;;;;;;9.63;6.05;;;;;;;;;;5106790;28;20455;-71
2021/01/01 01:11:25;;;;;;;10.52;6.35;;;;;;;;;;5114403;28;20796;-73
2021/01/01 01:13:52;;;;;;;13.00;6.47;;;;;;;;;;5114401;28;20534;-71
2021/01/01 01:16:22;;;;;;;10.10;5.85;;;;;;;;;;5113730;28;20076;-69
2021/01/01 01:18:48;;;;;;;10.63;5.30;;;;;;;;;;5130289;27;20035;-69
2021/01/01 01:21:14;;;;;;;8.70;5.55;;;;;;;;;;5114351;28;20077;-68
2021/01/01 01:23:40;;;;;;;8.63;5.20;;;;;;;;;;5114177;28;20039;-69
2021/01/01 01:26:06;;;;;;;7.82;5.13;;;;;;;;;;5114365;28;20027;-72
2021/01/01 01:28:32;;;;;;;9.07;5.35;;;;;;;;;;5114303;28;20034;-70
2021/01/01 01:30:58;;;;;;;8.38;5.32;;;;;;;;;;5114183;28;20020;-73
2021/01/01 01:33:25;;;;;;;9.25;5.20;;;;;;;;;;5128986;27;20072;-72
2021/01/01 01:35:51;;;;;;;7.50;4.75;;;;;;;;;;5113836;28;20410;-70
2021/01/01 01:38:17;;;;;;;9.32;4.75;;;;;;;;;;5113878;28;20016;-72
2021/01/01 01:40:43;;;;;;;10.43;4.63;;;;;;;;;;5114031;28;20030;-71
2021/01/01 01:43:09;;;;;;;14.48;5.40;;;;;;;;;;5129552;27;20023;-75
2021/01/01 01:45:35;;;;;;;7.70;4.53;;;;;;;;;;5113800;28;20596;-71
2021/01/01 01:48:01;;;;;;;10.43;5.38;;;;;;;;;;5113085;28;20051;-71
2021/01/01 01:50:28;;;;;;;8.40;4.70;;;;;;;;;;5104643;28;20046;-71
2021/01/01 01:52:54;;;;;;;8.07;4.63;;;;;;;;;;5091903;28;20069;-71
2021/01/01 01:55:20;;;;;;;6.45;4.18;;;;;;;;;;5108846;28;20587;-71
2021/01/01 01:57:46;;;;;;;8.40;4.53;;;;;;;;;;5113605;28;20031;-72
2021/01/01 02:02:54;;;;;;;9.57;4.85;;;;;;;;;;5113661;28;20115;-73
2021/01/01 02:05:20;;;;;;;7.63;4.22;;;;;;;;;;5113276;28;20023;-73
2021/01/01 02:07:46;;;;;;;7.25;4.22;;;;;;;;;;5103077;28;20016;-73
2021/01/01 02:10:13;;;;;;;6.32;3.75;;;;;;;;;;5093178;28;20079;-70
2021/01/01 02:12:39;;;;;;;6.82;4.20;;;;;;;;;;5092903;28;20041;-72
2021/01/01 02:15:05;;;;;;;7.60;4.10;;;;;;;;;;5108348;28;20020;-70
2021/01/01 02:17:31;;;;;;;7.97;3.90;;;;;;;;;;5108159;28;20452;-71
2021/01/01 02:20:08;;;;;;;6.25;3.65;;;;;;;;;;5092817;28;20020;-69
2021/01/01 02:22:35;;;;;;;6.78;3.95;;;;;;;;;;5092867;28;20463;-71
2021/01/01 02:25:01;;;;;;;6.65;3.72;;;;;;;;;;5093246;28;20036;-73
2021/01/01 02:27:27;;;;;;;6.50;3.65;;;;;;;;;;5092888;28;20031;-70
2021/01/01 02:29:53;;;;;;;7.90;4.07;;;;;;;;;;5092681;28;20110;-71
2021/01/01 02:32:19;;;;;;;6.03;3.58;;;;;;;;;;5092651;28;20026;-69
2021/01/01 02:34:45;;;;;;;8.65;3.90;;;;;;;;;;5108048;28;20044;-71
2021/01/01 02:37:11;;;;;;;7.78;3.45;;;;;;;;;;5108058;28;20028;-69
2021/01/01 02:39:38;;;;;;;6.20;3.67;;;;;;;;;;5092455;28;20386;-69
2021/01/01 02:42:04;;;;;;;9.02;4.25;;;;;;;;;;5093085;28;20020;-70
2021/01/01 02:44:31;;;;;;;7.10;4.25;;;;;;;;;;5092399;28;20036;-72
2021/01/01 02:47:00;;;;;;;6.78;3.95;;;;;;;;;;5092399;28;20023;-69
2021/01/01 02:49:26;;;;;;;6.70;3.92;;;;;;;;;;5107969;28;20055;-70
2021/01/01 02:51:52;;;;;;;7.03;3.50;;;;;;;;;;5092651;28;20501;-70
2021/01/01 02:54:18;;;;;;;7.55;3.85;;;;;;;;;;5092209;28;20024;-75
2021/01/01 02:56:44;;;;;;;6.30;3.53;;;;;;;;;;5092288;28;20059;-72
2021/01/01 02:59:10;;;;;;;5.45;3.10;;;;;;;;;;5092687;28;20034;-69
2021/01/01 03:01:37;;;;;;;7.55;3.85;;;;;;;;;;5092047;28;20387;-69
2021/01/01 03:04:03;;;;;;;7.38;3.25;;;;;;;;;;5092054;28;20028;-72
2021/01/01 03:06:29;;;;;;;7.40;3.25;;;;;;;;;;5107704;28;20043;-73
2021/01/01 03:08:55;;;;;;;6.25;3.28;;;;;;;;;;5112094;28;20027;-71
2021/01/01 03:11:21;;;;;;;6.60;3.55;;;;;;;;;;5112128;28;20027;-68
2021/01/01 03:13:47;;;;;;;5.80;3.45;;;;;;;;;;5112180;28;20027;-73
2021/01/01 03:16:13;;;;;;;9.35;2.83;;;;;;;;;;5111321;28;20024;-71
2021/01/01 03:18:39;;;;;;;5.80;3.25;;;;;;;;;;5112317;28;20104;-70
2021/01/01 03:21:05;;;;;;;5.65;3.35;;;;;;;;;;5112010;28;20027;-70
2021/01/01 03:23:31;;;;;;;5.63;3.22;;;;;;;;;;5127692;27;20028;-71
2021/01/01 03:25:57;;;;;;;5.75;3.15;;;;;;;;;;5112080;28;20575;-68
2021/01/01 03:28:23;;;;;;;6.10;3.15;;;;;;;;;;5111477;28;20030;-68
2021/01/01 03:30:49;;;;;;;8.55;3.13;;;;;;;;;;5112042;28;20024;-72
2021/01/01 03:33:15;;;;;;;5.82;3.40;;;;;;;;;;5111108;28;20551;-71
2021/01/01 03:35:41;;;;;;;6.70;3.13;;;;;;;;;;5080385;28;20522;-72
2021/01/01 03:38:08;;;;;;;6.65;3.60;;;;;;;;;;5091275;28;20021;-71
2021/01/01 03:40:34;;;;;;;10.65;3.30;;;;;;;;;;5073196;28;20027;-72
2021/01/01 03:43:00;;;;;;;13.27;4.18;;;;;;;;;;5091457;28;20024;-72
2021/01/01 03:45:28;;;;;;;8.05;3.03;;;;;;;;;;5091387;28;20024;-71
2021/01/01 03:47:54;;;;;;;7.75;3.40;;;;;;;;;;5073512;28;20028;-71
2021/01/01 03:50:20;;;;;;;8.50;3.60;;;;;;;;;;5076745;28;20025;-72
2021/01/01 03:52:46;;;;;;;8.98;3.50;;;;;;;;;;5071077;28;20024;-72
2021/01/01 03:55:12;;;;;;;5.82;3.25;;;;;;;;;;5071005;28;20024;-72
2021/01/01 03:57:38;;;;;;;6.30;3.25;;;;;;;;;;5053092;28;20020;-71
2021/01/01 04:00:05;;;;;;;6.30;3.45;;;;;;;;;;5070978;28;20024;-72
2021/01/01 04:02:32;;;;;;;6.13;3.30;;;;;;;;;;5071057;28;20011;-71
2021/01/01 04:04:58;;;;;;;6.70;3.47;;;;;;;;;;5070996;28;20079;-71
2021/01/01 04:07:24;;;;;;;5.70;3.13;;;;;;;;;;5079141;28;20016;-71
2021/01/01 04:09:50;;;;;;;7.30;3.38;;;;;;;;;;5091199;28;20421;-71
2021/01/01 04:12:16;;;;;;;6.90;3.55;;;;;;;;;;5091309;28;20095;-71
2021/01/01 04:14:42;;;;;;;7.00;3.00;;;;;;;;;;5091159;28;20074;-72
2021/01/01 04:17:08;;;;;;;5.10;2.88;;;;;;;;;;5091013;28;20150;-72
2021/01/01 04:19:34;;;;;;;7.13;2.65;;;;;;;;;;5091261;28;20016;-72
2021/01/01 04:22:00;;;;;;;4.82;2.58;;;;;;;;;;5091029;28;20028;-73
2021/01/01 04:24:26;;;;;;;5.35;2.85;;;;;;;;;;5090204;28;20028;-73
2021/01/01 04:26:52;;;;;;;5.47;3.17;;;;;;;;;;5091192;28;20012;-71
2021/01/01 04:29:18;;;;;;;6.43;3.17;;;;;;;;;;5090967;28;20024;-73
2021/01/01 04:31:44;;;;;;;5.00;2.58;;;;;;;;;;5091017;28;20020;-73
2021/01/01 04:34:11;;;;;;;5.63;2.92;;;;;;;;;;5090664;28;20036;-73
2021/01/01 04:36:37;;;;;;;6.57;2.75;;;;;;;;;;5081282;28;20032;-73
2021/01/01 04:39:04;;;;;;;6.22;3.20;;;;;;;;;;5072952;28;20110;-73
2021/01/01 04:41:30;;;;;;;7.78;2.58;;;;;;;;;;5076345;28;20017;-71
2021/01/01 04:43:56;;;;;;;4.50;2.42;;;;;;;;;;5057757;28;20492;-71
2021/01/01 04:46:22;;;;;;;6.15;2.50;;;;;;;;;;5075616;28;20016;-71
2021/01/01 04:48:48;;;;;;;6.70;2.85;;;;;;;;;;5056353;28;20086;-71
2021/01/01 04:51:14;;;;;;;6.25;2.58;;;;;;;;;;5056105;28;20024;-71
2021/01/01 04:53:41;;;;;;;5.50;2.47;;;;;;;;;;5073824;28;20020;-72
2021/01/01 04:56:08;;;;;;;5.60;2.72;;;;;;;;;;5078361;28;20662;-72
2021/01/01 04:58:35;;;;;;;4.68;2.50;;;;;;;;;;5094793;28;20016;-72
2021/01/01 05:01:02;;;;;;;7.45;2.75;;;;;;;;;;5094531;28;20474;-71
2021/01/01 05:03:28;;;;;;;7.85;2.72;;;;;;;;;;5076187;28;20028;-73
2021/01/01 05:05:54;;;;;;;9.75;2.90;;;;;;;;;;5093396;28;20103;-72
2021/01/01 05:08:21;;;;;;;8.43;2.72;;;;;;;;;;5075767;28;20016;-71
2021/01/01 05:10:48;;;;;;;6.38;2.92;;;;;;;;;;5094159;28;20069;-72
2021/01/01 05:13:15;;;;;;;5.25;2.53;;;;;;;;;;5094160;28;20035;-73
2021/01/01 05:15:41;;;;;;;5.45;2.78;;;;;;;;;;5094320;28;20062;-72
2021/01/01 05:18:17;;;;;;;6.35;2.83;;;;;;;;;;5094129;28;20016;-73
2021/01/01 05:20:44;;;;;;;5.35;3.38;;;;;;;;;;5075837;28;20028;-71
2021/01/01 05:23:17;;;;;;;5.40;2.88;;;;;;;;;;5093869;28;20475;-72
2021/01/01 05:25:43;;;;;;;6.10;3.17;;;;;;;;;;5093934;28;20028;-72
2021/01/01 05:28:15;;;;;;;4.78;2.67;;;;;;;;;;5094075;28;20042;-71
2021/01/01 05:30:42;;;;;;;5.70;2.60;;;;;;;;;;5091670;28;20103;-72
2021/01/01 05:33:14;;;;;;;5.78;3.13;;;;;;;;;;5094059;28;20024;-72
2021/01/01 05:35:40;;;;;;;5.30;2.90;;;;;;;;;;5093647;28;20078;-72
2021/01/01 05:38:17;;;;;;;5.20;2.78;;;;;;;;;;5093772;28;20374;-73
2021/01/01 05:40:47;;;;;;;5.35;3.00;;;;;;;;;;5093729;28;20024;-72
2021/01/01 05:43:23;;;;;;;4.95;2.60;;;;;;;;;;5075673;28;20028;-71
2021/01/01 05:45:49;;;;;;;5.78;3.17;;;;;;;;;;5075539;28;20032;-72
2021/01/01 05:48:19;;;;;;;6.10;2.63;;;;;;;;;;5093689;28;20091;-72
2021/01/01 05:50:45;;;;;;;5.50;2.85;;;;;;;;;;5092688;28;20043;-72
2021/01/01 05:53:18;;;;;;;5.40;3.05;;;;;;;;;;5075098;28;20020;-72
2021/01/01 05:55:46;;;;;;;5.68;3.08;;;;;;;;;;5092702;28;20027;-73
2021/01/01 05:58:19;;;;;;;5.13;3.05;;;;;;;;;;5092702;28;20020;-71
2021/01/01 06:00:45;;;;;;;5.05;2.63;;;;;;;;;;5092663;28;20021;-72
2021/01/01 06:03:14;;;;;;;4.88;2.65;;;;;;;;;;5092683;28;20028;-72
2021/01/01 06:05:40;;;;;;;6.05;3.20;;;;;;;;;;5092513;28;20036;-72
2021/01/01 06:08:07;;;;;;;7.28;2.83;;;;;;;;;;5092657;28;20110;-71
2021/01/01 06:10:34;;;;;;;5.63;3.55;;;;;;;;;;5092485;28;20028;-73
2021/01/01 06:13:00;;;;;;;6.28;3.10;;;;;;;;;;5074408;28;20039;-72
2021/01/01 06:15:36;;;;;;;5.22;2.85;;;;;;;;;;5092441;28;20024;-72
2021/01/01 06:18:06;;;;;;;6.68;3.55;;;;;;;;;;5092538;28;20111;-72
2021/01/01 06:20:32;;;;;;;7.30;3.10;;;;;;;;;;5092486;28;20028;-72
2021/01/01 06:23:02;;;;;;;7.32;3.85;;;;;;;;;;5092223;28;20027;-72
2021/01/01 06:25:29;;;;;;;7.20;3.47;;;;;;;;;;5092973;28;20024;-72
2021/01/01 06:27:55;;;;;;;9.95;4.53;;;;;;;;;;5092855;28;20475;-72
2021/01/01 06:30:24;;;;;;;7.13;4.07;;;;;;;;;;5074618;28;20063;-71
2021/01/01 06:32:51;;;;;;;6.90;3.97;;;;;;;;;;5092675;28;20019;-73
2021/01/01 06:35:21;;;;;;;6.53;3.47;;;;;;;;;;5092488;28;20052;-72
2021/01/01 06:37:49;;;;;;;6.75;3.88;;;;;;;;;;5092676;28;20122;-72
2021/01/01 06:40:21;;;;;;;6.25;4.18;;;;;;;;;;5092518;28;20082;-72
2021/01/01 06:43:03;;;;;;;7.03;4.25;;;;;;;;;;5092374;28;20387;-72
2021/01/01 06:45:35;;;;;;;7.05;4.47;;;;;;;;;;5072381;28;20036;-73
2021/01/01 06:48:05;;;;;;;7.25;4.30;;;;;;;;;;5092528;28;20028;-73
2021/01/01 06:50:32;;;;;;;8.52;4.40;;;;;;;;;;5092397;28;20566;-72
2021/01/01 06:53:03;;;;;;;6.65;4.57;;;;;;;;;;5074099;28;20024;-71
2021/01/01 06:55:36;;;;;;;7.85;4.78;;;;;;;;;;5092208;28;20494;-72
2021/01/01 06:58:03;;;;;;;7.50;4.55;;;;;;;;;;5092138;28;20024;-74
2021/01/01 07:00:47;;;;;;;8.13;4.88;;;;;;;;;;5092312;28;20479;-72
2021/01/01 07:03:28;;;;;;;6.88;4.20;;;;;;;;;;5092287;28;20165;-72
2021/01/01 07:05:55;;;;;;;7.07;4.72;;;;;;;;;;5092203;28;20480;-72
2021/01/01 07:08:42;;;;;;;7.30;4.50;;;;;;;;;;5073964;28;20572;-73
2021/01/01 07:11:08;;;;;;;7.57;4.30;;;;;;;;;;5092081;28;20039;-72
2021/01/01 07:13:43;;;;;;;8.13;4.70;;;;;;;;;;5092032;28;20463;-72
2021/01/01 07:16:09;;;;;;;7.90;4.78;;;;;;;;;;5073946;28;20036;-72
2021/01/01 07:18:36;;;;;;;8.50;4.95;;;;;;;;;;5092030;28;20043;-72
2021/01/01 07:21:06;;;;;;;7.50;4.43;;;;;;;;;;5091927;28;20463;-72
2021/01/01 07:23:32;;;;;;;9.75;4.80;;;;;;;;;;5091970;28;20039;-73
2021/01/01 07:25:59;;;;;;;9.55;4.72;;;;;;;;;;5091884;28;20048;-72
2021/01/01 07:28:26;;;;;;;6.97;4.43;;;;;;;;;;5091936;28;20023;-72
2021/01/01 07:30:52;;;;;;;8.18;4.72;;;;;;;;;;5073727;28;20062;-72
2021/01/01 07:33:19;;;;;;;7.15;4.63;;;;;;;;;;5073754;28;20413;-74
2021/01/01 07:35:51;;;;;;;7.55;4.43;;;;;;;;;;5091722;28;20044;-72
2021/01/01 07:38:19;;;;;;;7.40;4.25;;;;;;;;;;5091727;28;20146;-73
2021/01/01 07:40:48;;;;;;;7.47;4.70;;;;;;;;;;5091804;28;20028;-73
2021/01/01 07:43:14;;;;;;;7.30;4.18;;;;;;;;;;5091659;28;20024;-72
2021/01/01 07:45:40;;;;;;;9.20;5.47;;;;;;;;;;5091617;28;20103;-72
2021/01/01 07:48:07;;;;;;;9.80;5.22;;;;;;;;;;5091715;28;20074;-72
2021/01/01 07:50:33;;;;;;;7.60;4.72;;;;;;;;;;5073569;28;20024;-73
2021/01/01 07:53:06;;;;;;;7.10;4.72;;;;;;;;;;5073532;28;20070;-72
2021/01/01 07:55:33;;;;;;;7.13;4.68;;;;;;;;;;5091415;28;20028;-72
2021/01/01 07:58:00;;;;;;;7.68;5.13;;;;;;;;;;5073424;28;20020;-72
2021/01/01 08:00:30;;;;;;;9.23;5.53;;;;;;;;;;5091518;28;20028;-72
2021/01/01 08:02:56;;;;;;;8.13;5.00;;;;;;;;;;5091489;28;20042;-72
2021/01/01 08:05:22;;;;;;;9.80;5.78;;;;;;;;;;5091448;28;20112;-72
2021/01/01 08:07:48;;;;;;;8.68;5.53;;;;;;;;;;5091268;28;20024;-71
2021/01/01 08:10:14;;;;;;;8.05;5.10;;;;;;;;;;5091471;28;20024;-71
2021/01/01 08:12:53;;;;;;;8.90;5.05;;;;;;;;;;5091472;28;20024;-72
2021/01/01 08:15:29;;;;;;;9.48;5.85;;;;;;;;;;5094530;28;20073;-71
2021/01/01 08:17:55;;;;;;;8.88;5.90;;;;;;;;;;5077191;28;20024;-72
2021/01/01 08:20:21;;;;;;;8.65;5.53;;;;;;;;;;5095515;28;20016;-72
2021/01/01 08:22:48;;;;;;;7.90;5.30;;;;;;;;;;5095238;28;20077;-72
2021/01/01 08:25:15;;;;;;;8.25;5.05;;;;;;;;;;5095171;28;20024;-71
2021/01/01 08:27:42;;;;;;;8.63;5.70;;;;;;;;;;5077088;28;20395;-72
2021/01/01 08:30:09;;;;;;;8.60;5.68;;;;;;;;;;5077004;28;20024;-72
2021/01/01 08:32:35;;;;;;;9.00;5.85;;;;;;;;;;5095330;28;20039;-72
2021/01/01 08:35:01;;;;;;;8.43;5.65;;;;;;;;;;5094842;28;20036;-71
2021/01/01 08:37:28;;;;;;;8.00;5.03;;;;;;;;;;5076899;28;20086;-71
2021/01/01 08:40:00;;;;;;;9.20;5.18;;;;;;;;;;5095349;28;20020;-72
2021/01/01 08:42:32;;;;;;;9.13;5.90;;;;;;;;;;5095040;28;20050;-72
2021/01/01 08:44:58;;;;;;;8.93;5.65;;;;;;;;;;5093880;28;20032;-71
2021/01/01 08:47:41;;;;;;;8.82;5.18;;;;;;;;;;5076324;28;20020;-72
2021/01/01 08:50:18;;;;;;;8.00;4.95;;;;;;;;;;5094882;28;20074;-73
2021/01/01 08:52:45;;;;;;;8.00;5.03;;;;;;;;;;5094649;28;20027;-74
2021/01/01 08:55:12;;;;;;;9.15;5.13;;;;;;;;;;5094546;28;20012;-73
2021/01/01 08:57:38;;;;;;;9.52;4.57;;;;;;;;;;5076365;28;20024;-72
2021/01/01 09:00:05;;;;;;;8.57;4.93;;;;;;;;;;5094499;28;20063;-73
2021/01/01 09:02:33;;;;;;;8.10;5.10;;;;;;;;;;5094604;28;20024;-73
2021/01/01 09:04:59;;;;;;;8.40;4.50;;;;;;;;;;5094465;28;20094;-73
2021/01/01 09:07:26;;;;;;;6.38;4.22;;;;;;;;;;5076566;28;20390;-73
2021/01/01 09:09:52;;;;;;;8.45;5.25;;;;;;;;;;5094335;28;20422;-73
2021/01/01 09:12:21;;;;;;;7.35;4.47;;;;;;;;;;5094656;28;20016;-75
2021/01/01 09:14:51;;;;;;;6.47;4.32;;;;;;;;;;5094305;28;20476;-73
2021/01/01 09:17:19;;;;;;;6.32;4.50;;;;;;;;;;5076139;28;20028;-72
2021/01/01 09:19:45;;;;;;;7.55;4.80;;;;;;;;;;5094402;28;20027;-73
2021/01/01 09:22:12;;;;;;;7.57;4.43;;;;;;;;;;5094322;28;20107;-74
2021/01/01 09:24:38;;;;;;;6.50;4.00;;;;;;;;;;5094187;28;20028;-73
2021/01/01 09:27:04;;;;;;;6.65;4.38;;;;;;;;;;5093078;28;20074;-72
2021/01/01 09:29:31;;;;;;;6.45;4.45;;;;;;;;;;5075966;28;20042;-72
2021/01/01 09:31:57;;;;;;;7.55;4.35;;;;;;;;;;5093936;28;20016;-73
2021/01/01 09:34:23;;;;;;;6.75;4.80;;;;;;;;;;5093766;28;20048;-70
2021/01/01 09:36:50;;;;;;;6.60;4.40;;;;;;;;;;5094047;28;20023;-72
2021/01/01 09:39:16;;;;;;;7.35;4.47;;;;;;;;;;5093806;28;20113;-70
2021/01/01 09:41:47;;;;;;;7.65;4.10;;;;;;;;;;5093859;28;20032;-70
2021/01/01 09:44:13;;;;;;;7.47;3.97;;;;;;;;;;5075520;28;20028;-71
2021/01/01 09:46:43;;;;;;;6.97;3.97;;;;;;;;;;5093605;28;20028;-72
2021/01/01 09:49:09;;;;;;;6.78;3.97;;;;;;;;;;5093582;28;20023;-71
2021/01/01 09:51:35;;;;;;;6.10;3.88;;;;;;;;;;5093624;28;20031;-70
2021/01/01 09:54:01;;;;;;;7.43;4.00;;;;;;;;;;5075246;28;20512;-71
2021/01/01 09:56:40;;;;;;;7.47;4.25;;;;;;;;;;5075080;28;20403;-72
2021/01/01 09:59:06;;;;;;;5.60;3.97;;;;;;;;;;5092947;28;20027;-70
2021/01/01 10:01:32;;;;;;;7.03;4.20;;;;;;;;;;5092409;28;20095;-71
2021/01/01 10:03:59;;;;;;;17.27;4.30;;;;;;;;;;5092456;28;20043;-70
2021/01/01 10:06:26;;;;;;;6.13;3.80;;;;;;;;;;5074374;28;20444;-71
2021/01/01 10:08:52;;;;;;;6.47;3.92;;;;;;;;;;5092644;28;20032;-70
2021/01/01 10:11:18;;;;;;;7.72;3.90;;;;;;;;;;5092606;28;20020;-71
2021/01/01 10:13:44;;;;;;;7.50;3.85;;;;;;;;;;5092383;28;20024;-71
2021/01/01 10:16:11;;;;;;;8.35;3.85;;;;;;;;;;5092417;28;20059;-71
2021/01/01 10:18:38;;;;;;;8.68;4.38;;;;;;;;;;5092482;28;20055;-71
2021/01/01 10:21:05;;;;;;;7.40;4.38;;;;;;;;;;5074217;28;20028;-70
2021/01/01 10:23:31;;;;;;;7.72;4.13;;;;;;;;;;5092145;28;20024;-72
2021/01/01 10:25:57;;;;;;;7.05;4.32;;;;;;;;;;5092822;28;20024;-70
2021/01/01 10:28:23;;;;;;;7.15;4.03;;;;;;;;;;5092837;28;20024;-70
2021/01/01 10:30:49;;;;;;;7.13;4.50;;;;;;;;;;5092795;28;20479;-71
2021/01/01 10:33:15;;;;;;;6.93;4.32;;;;;;;;;;5074340;28;20115;-70
2021/01/01 10:35:41;;;;;;;7.35;4.50;;;;;;;;;;5073928;28;20408;-70
2021/01/01 10:38:07;;;;;;;7.10;4.45;;;;;;;;;;5072107;28;20016;-70
2021/01/01 10:40:34;;;;;;;6.90;4.13;;;;;;;;;;5072383;28;20031;-70
2021/01/01 10:43:00;;;;;;;7.43;4.65;;;;;;;;;;5054460;28;20067;-71
2021/01/01 10:45:26;;;;;;;7.65;4.18;;;;;;;;;;5070931;28;20034;-70
2021/01/01 10:47:52;;;;;;;7.57;4.43;;;;;;;;;;5054361;28;20066;-70
2021/01/01 10:50:18;;;;;;;8.15;4.32;;;;;;;;;;5072277;28;20031;-70
2021/01/01 10:52:44;;;;;;;7.25;4.20;;;;;;;;;;5072268;28;20475;-71
2021/01/01 10:55:11;;;;;;;7.45;3.55;;;;;;;;;;5072290;28;20036;-70
2021/01/01 10:57:37;;;;;;;7.32;4.30;;;;;;;;;;5072115;28;20035;-74
2021/01/01 11:00:05;;;;;;;6.90;3.88;;;;;;;;;;5072037;28;20052;-71
2021/01/01 11:02:31;;;;;;;7.63;5.03;;;;;;;;;;5071915;28;20498;-74
2021/01/01 11:04:57;;;;;;;7.22;4.82;;;;;;;;;;5071844;28;20067;-72
2021/01/01 11:07:23;;;;;;;6.78;4.07;;;;;;;;;;5072062;28;20021;-71
2021/01/01 11:09:49;;;;;;;8.23;4.85;;;;;;;;;;5072002;28;20032;-72
2021/01/01 11:12:15;;;;;;;11.20;4.82;;;;;;;;;;5071945;28;20518;-72
2021/01/01 12:25:25;;;;;;;11.00;5.93;;;;;;;;;;5071184;28;20040;-69
2021/01/01 12:27:51;;;;;;;8.32;5.03;;;;;;;;;;5060745;28;20021;-68
2021/01/01 12:30:17;;;;;;;8.65;5.18;;;;;;;;;;5052721;28;20033;-68
2021/01/01 12:32:44;;;;;;;9.30;4.72;;;;;;;;;;5070735;28;20466;-68
2021/01/01 12:35:11;;;;;;;9.40;5.88;;;;;;;;;;5052695;28;20052;-69
2021/01/01 12:37:38;;;;;;;9.00;4.78;;;;;;;;;;5070701;28;20025;-69
2021/01/01 12:40:05;;;;;;;10.38;5.32;;;;;;;;;;5082099;28;20074;-69
2021/01/01 12:42:31;;;;;;;9.40;5.18;;;;;;;;;;5090945;28;20428;-68
2021/01/01 12:44:57;;;;;;;8.98;5.45;;;;;;;;;;5090710;28;20478;-69
2021/01/01 12:47:24;;;;;;;8.00;4.95;;;;;;;;;;5072692;28;20073;-68
2021/01/01 12:49:52;;;;;;;8.68;4.93;;;;;;;;;;5090966;28;20028;-68
2021/01/01 12:52:18;;;;;;;9.80;5.57;;;;;;;;;;5090945;28;20229;-69
2021/01/01 12:54:44;;;;;;;9.93;5.43;;;;;;;;;;5091052;28;20031;-68
2021/01/01 12:57:10;;;;;;;8.93;5.00;;;;;;;;;;5090019;28;20028;-68
2021/01/01 12:59:36;;;;;;;10.32;5.85;;;;;;;;;;5090992;28;20096;-69
2021/01/01 13:02:02;;;;;;;7.70;4.28;;;;;;;;;;5110247;28;20035;-69
2021/01/01 13:04:29;;;;;;;7.68;4.78;;;;;;;;;;5094376;28;20048;-68
2021/01/01 13:06:55;;;;;;;6.70;4.50;;;;;;;;;;5094447;28;20016;-67
2021/01/01 13:09:22;;;;;;;7.72;4.82;;;;;;;;;;5094273;28;20022;-67
2021/01/01 13:11:48;;;;;;;8.15;4.47;;;;;;;;;;5094193;28;20024;-69
2021/01/01 13:14:14;;;;;;;8.40;4.55;;;;;;;;;;5093402;28;20020;-68
2021/01/01 13:16:41;;;;;;;7.15;4.30;;;;;;;;;;5109713;28;20021;-67
2021/01/01 13:19:08;;;;;;;8.38;4.70;;;;;;;;;;5093965;28;20020;-69
2021/01/01 13:21:35;;;;;;;8.70;4.82;;;;;;;;;;5094021;28;20099;-69
2021/01/01 13:24:01;;;;;;;7.53;4.35;;;;;;;;;;5093868;28;20039;-68
2021/01/01 13:26:28;;;;;;;6.97;4.20;;;;;;;;;;5093642;28;20048;-66
2021/01/01 13:28:55;;;;;;;9.27;4.10;;;;;;;;;;5073839;28;20033;-69
2021/01/01 13:31:22;;;;;;;7.60;4.10;;;;;;;;;;5074160;28;20073;-68
2021/01/01 13:33:52;;;;;;;7.78;4.45;;;;;;;;;;5073374;28;20025;-68
2021/01/01 13:36:18;;;;;;;7.30;4.35;;;;;;;;;;5073394;28;20029;-68
2021/01/01 13:38:45;;;;;;;8.02;4.57;;;;;;;;;;5073729;28;20013;-67
2021/01/01 13:41:13;;;;;;;7.70;4.20;;;;;;;;;;5073279;28;20021;-68
2021/01/01 13:43:39;;;;;;;8.32;4.15;;;;;;;;;;5073130;28;20028;-68
2021/01/01 13:46:06;;;;;;;7.43;4.65;;;;;;;;;;5073404;28;20028;-68
2021/01/01 13:48:32;;;;;;;7.72;4.38;;;;;;;;;;5055681;28;20028;-66
2021/01/01 13:50:58;;;;;;;8.32;4.40;;;;;;;;;;5073065;28;20450;-68
2021/01/01 13:53:24;;;;;;;8.23;4.45;;;;;;;;;;5073065;28;20468;-69
2021/01/01 13:55:50;;;;;;;6.78;3.90;;;;;;;;;;5072997;28;20027;-68
2021/01/01 13:58:17;;;;;;;7.53;4.07;;;;;;;;;;5073285;28;20096;-68
2021/01/01 14:00:44;;;;;;;7.25;3.92;;;;;;;;;;5073174;28;20020;-68
2021/01/01 14:03:10;;;;;;;8.95;4.10;;;;;;;;;;5072628;28;20020;-68
2021/01/01 14:05:36;;;;;;;5.88;3.50;;;;;;;;;;5073493;28;20055;-69
2021/01/01 14:08:02;;;;;;;7.72;4.30;;;;;;;;;;5072783;28;20016;-68
2021/01/01 14:10:28;;;;;;;7.68;4.05;;;;;;;;;;5054719;28;20052;-68
2021/01/01 14:12:54;;;;;;;7.45;4.28;;;;;;;;;;5072043;28;20021;-68
2021/01/01 14:15:20;;;;;;;7.95;4.22;;;;;;;;;;5072507;28;20020;-68
2021/01/01 14:17:46;;;;;;;7.70;3.83;;;;;;;;;;5054679;28;20476;-69
2021/01/01 14:20:14;;;;;;;7.13;4.30;;;;;;;;;;5072888;28;20025;-68
2021/01/01 14:22:40;;;;;;;7.13;4.15;;;;;;;;;;5055014;28;20021;-68
2021/01/01 14:25:06;;;;;;;6.75;4.10;;;;;;;;;;5072199;28;20479;-69
2021/01/01 14:27:33;;;;;;;9.15;4.18;;;;;;;;;;5078277;28;20052;-69
2021/01/01 14:29:59;;;;;;;7.18;3.70;;;;;;;;;;5054321;28;20107;-69
2021/01/01 14:32:25;;;;;;;6.88;3.90;;;;;;;;;;5072456;28;20020;-68
2021/01/01 14:34:52;;;;;;;6.75;3.78;;;;;;;;;;5072100;28;20045;-68
2021/01/01 14:37:21;;;;;;;5.97;3.45;;;;;;;;;;5072082;28;20031;-68
2021/01/01 14:39:47;;;;;;;6.15;3.75;;;;;;;;;;5054767;28;20110;-69
2021/01/01 14:42:13;;;;;;;8.18;4.03;;;;;;;;;;5054255;28;20111;-67
2021/01/01 14:44:39;;;;;;;6.85;3.85;;;;;;;;;;5071976;28;20064;-68
2021/01/01 14:47:05;;;;;;;31.95;5.50;;;;;;;;;;5071972;28;20024;-68
2021/01/01 14:49:31;;;;;;;19.27;4.68;;;;;;;;;;5054103;28;20485;-71
2021/01/01 14:51:57;;;;;;;30.17;5.32;;;;;;;;;;5053916;28;20479;-67
2021/01/01 14:54:25;;;;;;;24.67;5.35;;;;;;;;;;5071847;28;20103;-68
2021/01/01 14:56:51;;;;;;;17.30;5.30;;;;;;;;;;5072477;28;20017;-67
2021/01/01 14:59:18;;;;;;;21.60;5.60;;;;;;;;;;5071870;28;20127;-70
2021/01/01 15:01:44;;;;;;;16.13;5.03;;;;;;;;;;5071773;28;20050;-71
2021/01/01 15:04:10;;;;;;;20.30;5.20;;;;;;;;;;5053758;28;20491;-68
2021/01/01 15:06:36;;;;;;;16.85;4.97;;;;;;;;;;5053787;28;20479;-70
2021/01/01 15:09:02;;;;;;;14.63;4.43;;;;;;;;;;5053757;28;20043;-71
2021/01/01 15:11:28;;;;;;;16.15;4.72;;;;;;;;;;5071621;28;20025;-71
2021/01/01 15:13:54;;;;;;;18.50;5.35;;;;;;;;;;5072143;28;20051;-71
2021/01/01 15:16:20;;;;;;;14.23;4.90;;;;;;;;;;5071599;28;20025;-71
2021/01/01 15:18:46;;;;;;;11.88;4.75;;;;;;;;;;5071513;28;20029;-71
2021/01/01 15:21:12;;;;;;;13.90;4.85;;;;;;;;;;5053475;28;20017;-71
2021/01/01 15:23:45;;;;;;;13.75;4.85;;;;;;;;;;5070265;28;20025;-73
2021/01/01 15:26:11;;;;;;;;;;;;;;;;;;5091036;28;20106;-70
2021/01/01 15:28:37;;;;;;;16.58;4.68;;;;;;;;;;5091404;28;20422;-72
2021/01/01 15:31:03;;;;;;;12.00;4.40;;;;;;;;;;5090802;28;20024;-72
2021/01/01 15:33:29;;;;;;;11.15;4.63;;;;;;;;;;5073330;28;20024;-69
2021/01/01 15:35:55;;;;;;;12.30;4.57;;;;;;;;;;5071407;28;20117;-71
2021/01/01 15:38:21;;;;;;;11.52;4.95;;;;;;;;;;5053522;28;20028;-68
2021/01/01 15:40:47;;;;;;;14.52;4.97;;;;;;;;;;5053353;28;20028;-73
2021/01/01 15:43:13;;;;;;;9.00;4.28;;;;;;;;;;5071237;28;20467;-70
2021/01/01 15:45:39;;;;;;;8.15;4.32;;;;;;;;;;5071000;28;20032;-69
2021/01/01 15:48:06;;;;;;;13.80;4.47;;;;;;;;;;5049732;28;20029;-68
2021/01/01 15:50:32;;;;;;;10.75;4.57;;;;;;;;;;5051217;28;20025;-69
2021/01/01 15:52:58;;;;;;;9.73;4.20;;;;;;;;;;5051050;28;20022;-68